Time;durP1;ratioP1;P1;durP2;ratioP2;P2;SDS_P1;SDS_P2;PMS_P1;PMS_P2;Temp;Humidity;BMP_temperature;BMP_pressure;BME280_temperature;BME280_humidity;BME280_pressure;Samples;Min_cycle;Max_cycle;Signal;HPM_P1;HPM_P2
2021/06/07 00:00:20;;;;;;;30.55;17.95;;;;;;;16.25;83.85;100993.97;5071175;28;20032;-77
2021/06/07 00:02:46;;;;;;;29.65;18.40;;;;;;;16.25;83.87;100993.97;5046764;28;20279;-77
2021/06/07 00:05:12;;;;;;;30.77;18.63;;;;;;;16.20;84.44;100996.34;5071097;28;20032;-77
2021/06/07 00:07:37;;;;;;;28.02;16.85;;;;;;;16.16;84.54;100998.56;5070545;28;20155;-77
2021/06/07 00:10:07;;;;;;;23.40;14.38;;;;;;;16.20;83.96;100997.16;5070936;28;20501;-77
2021/06/07 00:12:32;;;;;;;22.77;13.88;;;;;;;16.19;84.34;100992.84;5070921;28;20059;-76
2021/06/07 00:14:57;;;;;;;24.13;15.80;;;;;;;16.21;83.72;101001.53;5070937;28;20536;-77
2021/06/07 00:17:23;;;;;;;26.42;16.40;;;;;;;16.18;84.29;100993.03;5070592;28;20069;-77
2021/06/07 00:19:48;;;;;;;24.88;15.68;;;;;;;16.16;83.89;100990.56;5070157;28;20039;-77
2021/06/07 00:22:13;;;;;;;26.00;16.90;;;;;;;16.19;84.18;100998.19;5070308;28;20037;-77
2021/06/07 00:24:39;;;;;;;22.00;13.80;;;;;;;16.19;84.32;101005.38;5069810;28;20047;-77
2021/06/07 00:27:05;;;;;;;23.27;15.48;;;;;;;16.20;84.00;100997.16;5067883;28;20036;-76
2021/06/07 00:29:31;;;;;;;27.10;18.20;;;;;;;16.14;84.54;100996.06;5070937;28;20040;-77
2021/06/07 00:31:56;;;;;;;27.60;19.17;;;;;;;16.14;83.97;100996.06;5070722;28;20086;-76
2021/06/07 00:34:21;;;;;;;26.77;17.60;;;;;;;16.18;84.21;100993.84;5051357;28;20041;-77
2021/06/07 00:36:47;;;;;;;27.30;16.73;;;;;;;16.20;83.97;100997.16;5063273;28;20071;-76
2021/06/07 00:39:15;;;;;;;30.35;20.67;;;;;;;16.12;84.46;100998.06;5069458;28;20528;-76
2021/06/07 00:41:43;;;;;;;32.90;19.95;;;;;;;16.20;83.54;100994.50;5070393;28;20356;-76
2021/06/07 00:44:13;;;;;;;27.08;16.98;;;;;;;16.12;85.20;101000.72;5069227;28;20028;-76
2021/06/07 00:46:39;;;;;;;23.67;16.02;;;;;;;16.14;84.59;100998.72;5070082;28;20114;-76
2021/06/07 00:49:05;;;;;;;25.70;15.88;;;;;;;16.15;84.42;100999.53;5055328;28;20028;-76
2021/06/07 00:51:31;;;;;;;22.50;14.82;;;;;;;16.19;84.46;100994.69;5070066;28;20036;-76
2021/06/07 00:53:57;;;;;;;25.58;16.55;;;;;;;16.15;84.89;100991.53;5051884;28;20032;-76
2021/06/07 00:56:22;;;;;;;29.23;17.88;;;;;;;16.20;84.22;101005.19;5069893;28;20045;-76
2021/06/07 00:58:49;;;;;;;25.70;16.77;;;;;;;16.18;84.70;100995.69;5070149;28;20451;-77
2021/06/07 01:01:17;;;;;;;28.20;18.75;;;;;;;16.20;84.36;100993.69;5070606;28;20118;-76
2021/06/07 01:03:44;;;;;;;26.98;18.45;;;;;;;16.18;84.63;100993.03;5070337;28;20033;-76
2021/06/07 01:06:10;;;;;;;29.58;19.05;;;;;;;16.16;84.59;100995.03;5069583;28;20103;-76
2021/06/07 01:08:35;;;;;;;28.85;17.88;;;;;;;16.16;84.49;100989.69;5069847;28;20043;-76
2021/06/07 01:11:01;;;;;;;29.70;18.92;;;;;;;16.18;84.51;100985.00;5068434;28;20444;-76
2021/06/07 01:13:26;;;;;;;29.08;17.98;;;;;;;16.19;84.70;101000.03;5069363;28;20056;-78
2021/06/07 01:15:53;;;;;;;27.65;18.48;;;;;;;16.21;84.03;100988.19;5069170;28;20119;-77
2021/06/07 01:18:20;;;;;;;28.27;18.60;;;;;;;16.20;84.55;100985.69;5069497;28;20420;-76
2021/06/07 01:20:48;;;;;;;27.58;18.70;;;;;;;16.20;84.16;100986.50;5062836;28;20409;-76
2021/06/07 01:23:13;;;;;;;26.77;17.85;;;;;;;16.21;84.39;100990.00;5068943;28;20037;-76
2021/06/07 01:25:41;;;;;;;29.67;19.40;;;;;;;16.16;84.67;100984.34;5068992;28;20994;-76
2021/06/07 01:28:09;;;;;;;27.45;18.45;;;;;;;16.20;84.18;100980.34;5068541;28;20095;-76
2021/06/07 01:30:37;;;;;;;30.00;19.42;;;;;;;16.18;84.87;100980.50;5068592;28;20573;-76
2021/06/07 01:33:08;;;;;;;31.95;18.65;;;;;;;16.16;84.86;100976.34;5069849;28;20040;-76
2021/06/07 01:35:34;;;;;;;29.48;19.67;;;;;;;16.16;84.75;100976.34;5069026;28;20131;-77
2021/06/07 01:38:00;;;;;;;30.83;20.42;;;;;;;16.18;84.86;100977.84;5069425;28;20059;-77
2021/06/07 01:40:33;;;;;;;32.50;20.75;;;;;;;16.21;84.37;100972.16;5069005;28;20179;-77
2021/06/07 01:43:00;;;;;;;27.55;17.65;;;;;;;16.18;84.81;100974.34;5064396;28;20029;-76
2021/06/07 01:45:27;;;;;;;27.30;18.48;;;;;;;16.19;84.55;100974.19;5066657;28;20067;-76
2021/06/07 01:47:54;;;;;;;31.17;20.15;;;;;;;16.26;84.24;100968.97;5069165;28;20037;-77
2021/06/07 01:50:19;;;;;;;32.80;21.25;;;;;;;16.20;84.72;100967.81;5068493;28;20098;-77
2021/06/07 01:52:48;;;;;;;26.75;17.40;;;;;;;16.19;84.75;100968.84;5069325;28;20443;-77
2021/06/07 01:55:18;;;;;;;30.45;19.35;;;;;;;16.15;84.65;100975.53;5069247;28;20029;-76
2021/06/07 01:57:44;;;;;;;32.85;21.75;;;;;;;16.05;85.23;100972.28;5069401;28;20036;-76
2021/06/07 02:00:13;;;;;;;37.40;22.60;;;;;;;15.90;86.74;100972.22;5069064;28;20497;-76
2021/06/07 02:02:46;;;;;;;28.70;19.88;;;;;;;15.79;87.86;100972.59;5068935;28;20119;-76
2021/06/07 02:05:14;;;;;;;32.92;20.73;;;;;;;15.79;86.86;100967.25;5051656;28;20497;-77
2021/06/07 02:07:50;;;;;;;29.55;20.02;;;;;;;15.70;88.36;100966.47;5069196;28;20458;-77
2021/06/07 02:10:17;;;;;;;32.95;19.92;;;;;;;15.67;88.06;100964.13;5068475;28;20029;-78
2021/06/07 02:12:43;;;;;;;25.48;16.67;;;;;;;15.65;88.70;100971.47;5069553;28;20029;-78
2021/06/07 02:15:10;;;;;;;29.52;19.77;;;;;;;15.66;88.63;100973.09;5071156;28;20082;-78
2021/06/07 02:17:36;;;;;;;27.90;17.52;;;;;;;15.62;89.14;100972.63;5073000;28;20119;-79
2021/06/07 02:20:10;;;;;;;27.33;17.45;;;;;;;15.61;89.56;100970.13;5055295;28;20064;-79
2021/06/07 02:22:36;;;;;;;23.13;14.95;;;;;;;15.61;88.92;100972.81;5072672;28;20036;-79
2021/06/07 02:25:04;;;;;;;19.35;12.93;;;;;;;15.60;90.27;100979.97;5074563;28;20033;-79
2021/06/07 02:27:30;;;;;;;20.80;14.95;;;;;;;15.55;91.17;100971.66;5056002;28;20032;-79
2021/06/07 02:29:57;;;;;;;23.38;15.48;;;;;;;15.49;92.42;100972.34;5072725;28;20036;-79
2021/06/07 02:32:22;;;;;;;24.40;17.05;;;;;;;15.42;92.05;100972.25;5072534;28;20041;-78
2021/06/07 02:34:47;;;;;;;19.58;13.85;;;;;;;15.41;92.75;100969.72;5073185;28;20189;-79
2021/06/07 02:37:13;;;;;;;24.40;16.38;;;;;;;15.39;91.97;100967.22;5071934;28;20032;-78
2021/06/07 02:39:39;;;;;;;22.88;16.27;;;;;;;15.34;93.31;100966.91;5055778;28;20597;-79
2021/06/07 02:42:05;;;;;;;19.60;12.70;;;;;;;15.35;93.00;100970.41;5072278;28;20039;-78
2021/06/07 02:44:30;;;;;;;28.70;17.38;;;;;;;15.35;92.56;100962.41;5072548;28;20039;-78
2021/06/07 02:46:55;;;;;;;24.42;15.45;;;;;;;15.31;92.42;100967.28;5071442;28;20028;-77
2021/06/07 02:49:21;;;;;;;23.63;17.05;;;;;;;15.28;92.92;100968.44;5057751;28;20044;-78
2021/06/07 02:51:46;;;;;;;30.98;19.17;;;;;;;15.28;92.40;100970.28;5053965;28;20127;-78
2021/06/07 02:54:11;;;;;;;24.30;17.58;;;;;;;15.26;92.90;100970.44;5071951;28;20084;-78
2021/06/07 02:56:37;;;;;;;21.25;15.95;;;;;;;15.20;94.66;100967.63;5070528;28;20124;-77
2021/06/07 02:59:03;;;;;;;31.02;18.27;;;;;;;15.24;93.17;100969.78;5052702;28;20110;-78
2021/06/07 03:01:29;;;;;;;24.95;17.10;;;;;;;15.24;93.35;100968.97;5071520;28;20405;-78
2021/06/07 03:03:54;;;;;;;18.88;13.98;;;;;;;15.24;92.96;100968.97;5071832;28;20041;-79
2021/06/07 03:06:19;;;;;;;23.45;16.60;;;;;;;15.24;93.69;100972.44;5071347;28;20297;-78
2021/06/07 03:08:44;;;;;;;21.80;15.57;;;;;;;15.21;93.91;100970.13;5074821;28;20035;-77
2021/06/07 03:11:12;;;;;;;20.58;14.25;;;;;;;15.19;94.45;100977.47;5074160;28;20115;-78
2021/06/07 03:13:39;;;;;;;17.38;13.57;;;;;;;15.17;94.34;100974.13;5056116;28;20090;-78
2021/06/07 03:16:05;;;;;;;22.15;15.63;;;;;;;15.16;94.81;100971.63;5056762;28;20036;-77
2021/06/07 03:18:30;;;;;;;20.58;15.18;;;;;;;15.15;94.44;100968.16;5055761;28;20054;-77
2021/06/07 03:20:56;;;;;;;15.82;11.30;;;;;;;15.16;94.73;100976.97;5073483;28;20032;-77
2021/06/07 03:23:25;;;;;;;21.50;14.27;;;;;;;15.16;94.37;100969.81;5073882;28;20037;-77
2021/06/07 03:25:50;;;;;;;16.25;12.35;;;;;;;15.16;94.41;100971.63;5073334;28;20078;-78
2021/06/07 03:28:18;;;;;;;14.27;11.85;;;;;;;15.18;94.12;100982.94;5073380;28;20036;-78
2021/06/07 03:30:44;;;;;;;14.68;11.88;;;;;;;15.18;95.16;100981.16;5055121;28;20031;-77
2021/06/07 03:33:11;;;;;;;14.95;11.15;;;;;;;15.16;94.90;100974.28;5073646;28;20032;-77
2021/06/07 03:35:38;;;;;;;14.00;10.85;;;;;;;15.16;94.70;100976.97;5073238;28;20416;-78
2021/06/07 03:38:05;;;;;;;16.50;12.60;;;;;;;15.16;94.65;100972.50;5054650;28;20055;-77
2021/06/07 03:40:33;;;;;;;15.30;11.90;;;;;;;15.13;95.71;100971.97;5072908;28;20116;-78
2021/06/07 03:42:59;;;;;;;15.23;12.32;;;;;;;15.13;95.55;100971.97;5066432;28;20366;-80
2021/06/07 03:45:25;;;;;;;16.52;12.80;;;;;;;15.16;95.01;100983.16;5073963;28;20047;-77
2021/06/07 03:47:51;;;;;;;15.43;11.75;;;;;;;15.14;95.08;100974.50;5074574;28;20044;-77
2021/06/07 03:50:20;;;;;;;14.02;11.32;;;;;;;15.16;94.90;100971.63;5054179;28;20031;-77
2021/06/07 03:52:45;;;;;;;16.65;12.77;;;;;;;15.14;95.32;100966.50;5072027;28;20397;-77
2021/06/07 03:55:14;;;;;;;15.85;12.52;;;;;;;15.17;94.97;100974.13;5073680;28;20043;-77
2021/06/07 03:57:40;;;;;;;14.57;11.40;;;;;;;15.16;94.89;100969.81;5055950;28;20106;-77
2021/06/07 04:00:09;;;;;;;14.60;11.63;;;;;;;15.13;95.77;100971.97;5055308;28;20037;-77
2021/06/07 04:02:34;;;;;;;18.13;13.65;;;;;;;15.10;95.85;100967.84;5054255;28;20084;-77
2021/06/07 04:04:59;;;;;;;15.10;11.82;;;;;;;15.11;95.84;100969.50;5072106;28;20037;-77
2021/06/07 04:07:24;;;;;;;18.98;13.27;;;;;;;15.12;95.71;100973.81;5072610;28;20039;-77
2021/06/07 04:09:50;;;;;;;14.82;11.55;;;;;;;15.12;95.58;100971.16;5072243;28;20400;-77
2021/06/07 04:12:15;;;;;;;16.00;12.52;;;;;;;15.15;95.33;100972.66;5072224;28;20102;-79
2021/06/07 04:14:41;;;;;;;16.83;12.40;;;;;;;15.13;95.56;100969.31;5055190;28;20032;-77
2021/06/07 04:17:06;;;;;;;14.50;11.50;;;;;;;15.13;95.24;100972.81;5073626;28;20115;-77
2021/06/07 04:19:32;;;;;;;16.13;12.57;;;;;;;15.14;95.17;100969.16;5072870;28;20386;-77
2021/06/07 04:21:57;;;;;;;14.63;11.00;;;;;;;15.16;95.56;100976.97;5073374;28;20033;-76
2021/06/07 04:24:22;;;;;;;12.40;9.88;;;;;;;15.16;95.18;100971.63;5072695;28;20043;-78
2021/06/07 04:26:48;;;;;;;15.93;11.65;;;;;;;15.18;95.55;100969.63;5073242;28;20029;-78
2021/06/07 04:29:13;;;;;;;15.23;11.60;;;;;;;15.15;95.81;100972.66;5053937;28;20036;-77
2021/06/07 04:31:38;;;;;;;14.23;11.40;;;;;;;15.14;95.81;100973.66;5072012;28;20420;-78
2021/06/07 04:34:04;;;;;;;15.00;10.88;;;;;;;15.16;95.37;100971.63;5072646;28;20042;-77
2021/06/07 04:36:29;;;;;;;14.27;10.10;;;;;;;15.16;95.82;100968.97;5072393;28;20036;-77
2021/06/07 04:38:54;;;;;;;15.40;11.63;;;;;;;15.18;95.18;100969.63;5072243;28;20382;-79
2021/06/07 04:41:20;;;;;;;13.82;10.93;;;;;;;15.19;95.40;100971.31;5073331;28;20097;-78
2021/06/07 04:43:45;;;;;;;13.50;10.50;;;;;;;15.18;95.62;100974.97;5073907;28;20036;-78
2021/06/07 04:46:12;;;;;;;14.57;10.85;;;;;;;15.19;95.72;100966.00;5079430;28;20036;-78
2021/06/07 04:48:38;;;;;;;12.38;9.98;;;;;;;15.18;96.12;100973.16;5080392;28;20086;-78
2021/06/07 04:51:04;;;;;;;17.40;12.13;;;;;;;15.19;96.02;100973.97;5055143;28;20092;-78
2021/06/07 04:53:29;;;;;;;13.65;10.85;;;;;;;15.18;95.76;100974.97;5056163;28;20036;-76
2021/06/07 04:55:54;;;;;;;12.40;9.85;;;;;;;15.21;95.64;100974.66;5074542;28;20386;-77
2021/06/07 04:58:24;;;;;;;16.48;12.43;;;;;;;15.22;96.21;100971.78;5054540;28;20497;-78
2021/06/07 05:00:53;;;;;;;14.30;10.88;;;;;;;15.20;96.46;100967.63;5054568;28;20409;-78
2021/06/07 05:03:19;;;;;;;18.02;13.30;;;;;;;15.22;95.70;100968.28;5052600;28;20031;-78
2021/06/07 05:05:46;;;;;;;17.02;12.90;;;;;;;15.20;96.37;100972.97;5066028;28;20713;-78
2021/06/07 05:08:11;;;;;;;15.90;12.95;;;;;;;15.20;96.33;100964.97;5073480;28;20032;-77
2021/06/07 05:10:37;;;;;;;16.67;11.27;;;;;;;15.20;96.37;100964.97;5072958;28;20048;-77
2021/06/07 05:13:02;;;;;;;14.52;11.13;;;;;;;15.22;96.14;100970.97;5073415;28;20063;-77
2021/06/07 05:15:28;;;;;;;15.60;11.77;;;;;;;15.17;96.67;100966.16;5072622;28;20039;-78
2021/06/07 05:17:53;;;;;;;15.02;11.75;;;;;;;15.20;96.63;100967.63;5072365;28;20032;-77
2021/06/07 05:20:22;;;;;;;11.95;10.02;;;;;;;15.21;96.82;100971.97;5071826;28;20033;-78
2021/06/07 05:22:48;;;;;;;14.10;10.73;;;;;;;15.19;96.76;100973.97;5066863;28;20029;-77
2021/06/07 05:25:14;;;;;;;11.95;9.93;;;;;;;15.19;96.88;100979.31;5055089;28;20141;-77
2021/06/07 05:27:40;;;;;;;13.02;10.30;;;;;;;15.23;96.56;100977.94;5055278;28;20037;-78
2021/06/07 05:30:07;;;;;;;13.30;10.20;;;;;;;15.21;96.39;100975.47;5071347;28;20097;-78
2021/06/07 05:32:32;;;;;;;13.27;10.23;;;;;;;15.24;96.82;100976.97;5071746;28;20055;-78
2021/06/07 05:34:57;;;;;;;12.55;10.20;;;;;;;15.22;96.86;100977.13;5071403;28;20111;-78
2021/06/07 05:37:23;;;;;;;12.57;9.38;;;;;;;15.27;96.86;100979.28;5053079;28;20035;-81
2021/06/07 05:39:49;;;;;;;12.45;9.82;;;;;;;15.29;97.07;100982.59;5070451;28;20036;-78
2021/06/07 05:42:15;;;;;;;15.10;11.50;;;;;;;15.30;96.89;100986.91;5065078;28;20029;-77
2021/06/07 05:44:40;;;;;;;13.82;11.15;;;;;;;15.30;96.59;100981.59;5071082;28;20489;-78
2021/06/07 05:47:05;;;;;;;18.42;12.48;;;;;;;15.31;96.28;100980.59;5071746;28;20112;-78
2021/06/07 05:49:31;;;;;;;17.15;12.02;;;;;;;15.34;95.81;100990.06;5053465;28;20039;-77
2021/06/07 05:51:56;;;;;;;15.15;11.80;;;;;;;15.32;96.26;100997.41;5052826;28;20401;-78
2021/06/07 05:54:21;;;;;;;17.02;12.48;;;;;;;15.35;95.94;100987.25;5070870;28;20043;-78
2021/06/07 05:56:53;;;;;;;16.23;11.70;;;;;;;15.35;96.06;100997.06;5062181;28;20377;-77
2021/06/07 05:59:18;;;;;;;16.17;12.43;;;;;;;15.28;96.50;100995.09;5071950;28;20032;-80
2021/06/07 06:01:44;;;;;;;14.73;11.52;;;;;;;15.32;96.52;100989.41;5071684;28;20170;-76
2021/06/07 06:04:09;;;;;;;15.90;12.00;;;;;;;15.31;96.55;100985.94;5070866;28;20028;-78
2021/06/07 06:06:35;;;;;;;14.88;11.68;;;;;;;15.35;96.33;100994.38;5052704;28;20044;-77
2021/06/07 06:09:00;;;;;;;17.65;12.48;;;;;;;15.39;96.38;100991.22;5071407;28;20028;-76
2021/06/07 06:11:25;;;;;;;16.08;12.02;;;;;;;15.40;96.14;100998.22;5070638;28;20048;-80
2021/06/07 06:13:51;;;;;;;16.48;12.93;;;;;;;15.37;96.49;101001.22;5070503;28;20032;-79
2021/06/07 06:16:19;;;;;;;14.02;11.40;;;;;;;15.35;96.31;101000.56;5070499;28;20028;-79
2021/06/07 06:18:44;;;;;;;14.80;11.52;;;;;;;15.38;96.51;100994.06;5070225;28;20420;-80
2021/06/07 06:21:10;;;;;;;17.85;12.85;;;;;;;15.40;96.56;100994.72;5070830;28;20066;-79
2021/06/07 06:23:35;;;;;;;15.77;11.98;;;;;;;15.39;96.11;100995.72;5070447;28;20044;-80
2021/06/07 06:26:03;;;;;;;17.08;12.77;;;;;;;15.37;96.21;101001.22;5070841;28;20037;-80
2021/06/07 06:28:29;;;;;;;17.58;12.45;;;;;;;15.38;95.74;100999.41;5052829;28;20028;-79
2021/06/07 06:30:54;;;;;;;14.43;11.02;;;;;;;15.32;95.90;100998.22;5070481;28;20035;-78
2021/06/07 06:33:20;;;;;;;14.50;11.18;;;;;;;15.33;96.34;101005.25;5071120;28;20056;-79
2021/06/07 06:35:45;;;;;;;16.35;12.52;;;;;;;15.31;96.32;100995.75;5070086;28;20028;-80
2021/06/07 06:38:11;;;;;;;16.55;11.63;;;;;;;15.32;95.92;101002.72;5071053;28;20187;-80
2021/06/07 06:40:38;;;;;;;17.17;12.32;;;;;;;15.29;95.86;100996.75;5053987;28;20558;-79
2021/06/07 06:43:05;;;;;;;20.67;13.50;;;;;;;15.30;95.85;100997.56;5074387;28;20086;-79
2021/06/07 06:45:32;;;;;;;17.08;12.65;;;;;;;15.32;96.28;101002.72;5073266;28;20070;-80
2021/06/07 06:47:58;;;;;;;15.63;11.63;;;;;;;15.27;96.31;101003.25;5062433;28;20481;-79
2021/06/07 06:50:33;;;;;;;17.67;13.25;;;;;;;15.30;95.90;101008.22;5071463;28;20041;-79
2021/06/07 06:53:03;;;;;;;18.67;13.60;;;;;;;15.31;96.18;101009.09;5075195;28;20277;-79
2021/06/07 06:55:29;;;;;;;17.10;12.57;;;;;;;15.33;96.36;101002.56;5074379;28;20124;-79
2021/06/07 06:57:54;;;;;;;24.33;15.48;;;;;;;15.37;96.06;101009.19;5055838;28;20115;-79
2021/06/07 07:00:20;;;;;;;18.92;13.45;;;;;;;15.39;95.92;101009.03;5072723;28;20041;-79
2021/06/07 07:02:45;;;;;;;24.00;16.20;;;;;;;15.38;96.04;101010.88;5073826;28;20574;-79
2021/06/07 07:05:11;;;;;;;17.50;13.18;;;;;;;15.38;95.94;101007.41;5071595;28;20068;-78
2021/06/07 07:07:36;;;;;;;17.67;13.05;;;;;;;15.35;96.38;101011.22;5074602;28;20123;-79
2021/06/07 07:10:03;;;;;;;18.40;14.50;;;;;;;15.34;96.32;101012.22;5074009;28;20029;-79
2021/06/07 07:12:29;;;;;;;22.02;15.35;;;;;;;15.36;95.89;101012.06;5075167;28;20044;-79
2021/06/07 07:14:54;;;;;;;20.92;14.95;;;;;;;15.33;95.99;101015.91;5074218;28;20409;-78
2021/06/07 07:17:19;;;;;;;21.05;14.73;;;;;;;15.35;95.91;101008.56;5056315;28;20384;-78
2021/06/07 07:19:46;;;;;;;20.27;13.82;;;;;;;15.37;96.15;101009.19;5071017;28;20039;-78
2021/06/07 07:22:13;;;;;;;21.38;15.57;;;;;;;15.36;96.06;101018.22;5074332;28;20028;-79
2021/06/07 07:24:43;;;;;;;16.27;12.75;;;;;;;15.35;96.47;101013.91;5073817;28;20051;-79
2021/06/07 07:27:11;;;;;;;18.33;13.60;;;;;;;15.34;96.74;101011.41;5073015;28;20071;-78
2021/06/07 07:29:36;;;;;;;25.20;16.80;;;;;;;15.43;96.34;101018.38;5073511;28;20223;-79
2021/06/07 07:32:03;;;;;;;21.25;15.20;;;;;;;15.44;96.30;101020.00;5073450;28;20024;-79
2021/06/07 07:34:29;;;;;;;18.90;14.18;;;;;;;15.45;96.55;101025.19;5056076;28;20039;-80
2021/06/07 07:36:54;;;;;;;22.63;16.05;;;;;;;15.49;96.88;101026.50;5073586;28;20036;-80
2021/06/07 07:39:19;;;;;;;21.45;16.45;;;;;;;15.49;96.80;101029.19;5075062;28;20047;-79
2021/06/07 07:41:44;;;;;;;21.65;15.68;;;;;;;15.57;96.14;101030.97;5073738;28;20035;-80
2021/06/07 07:44:10;;;;;;;16.20;12.77;;;;;;;15.61;96.54;101029.63;5074343;28;20489;-79
2021/06/07 07:46:35;;;;;;;19.88;14.15;;;;;;;15.65;96.49;101032.78;5074196;28;20036;-79
2021/06/07 07:49:00;;;;;;;21.33;15.60;;;;;;;15.64;96.58;101025.78;5073512;28;20097;-80
2021/06/07 07:51:26;;;;;;;16.83;13.52;;;;;;;15.69;96.39;101031.44;5066875;28;20481;-80
2021/06/07 07:53:51;;;;;;;21.95;16.27;;;;;;;15.61;96.29;101031.44;5068593;28;20033;-80
2021/06/07 07:56:16;;;;;;;21.20;15.60;;;;;;;15.64;96.19;101033.78;5072613;28;20061;-80
2021/06/07 07:58:42;;;;;;;21.00;15.00;;;;;;;15.64;96.52;101031.13;5072882;28;20138;-80
2021/06/07 08:01:07;;;;;;;16.85;13.38;;;;;;;15.63;96.33;101037.44;5055831;28;20558;-79
2021/06/07 08:03:32;;;;;;;17.27;13.00;;;;;;;15.67;96.48;101036.09;5055586;28;20047;-80
2021/06/07 08:05:58;;;;;;;16.20;13.55;;;;;;;15.74;96.88;101029.09;5056824;28;20032;-79
2021/06/07 08:08:23;;;;;;;18.98;14.27;;;;;;;15.75;95.81;101027.25;5072194;28;20036;-80
2021/06/07 08:10:55;;;;;;;15.20;11.35;;;;;;;15.78;96.31;101030.44;5072956;28;20033;-81
2021/06/07 08:13:20;;;;;;;;;;;;;;;15.81;96.15;101031.91;5074431;28;20078;-80
2021/06/07 08:15:45;;;;;;;16.93;12.53;;;;;;;15.83;95.86;101036.06;5055927;28;19916;-80
2021/06/07 08:18:10;;;;;;;21.67;14.05;;;;;;;15.87;95.59;101029.41;5073429;28;20521;-80
2021/06/07 08:20:36;;;;;;;16.52;12.73;;;;;;;15.86;95.63;101030.38;5072093;28;20029;-80
2021/06/07 08:23:01;;;;;;;17.58;12.60;;;;;;;15.92;95.53;101026.19;5073923;28;20063;-79
2021/06/07 08:25:26;;;;;;;16.90;13.00;;;;;;;15.90;95.91;101025.53;5073368;28;20083;-79
2021/06/07 08:27:53;;;;;;;20.13;13.50;;;;;;;15.96;95.76;101029.34;5073208;28;20422;-80
2021/06/07 08:30:20;;;;;;;15.00;11.45;;;;;;;15.95;95.84;101028.50;5070506;28;20049;-80
2021/06/07 08:32:46;;;;;;;20.27;13.60;;;;;;;16.04;95.71;101027.47;5070057;28;20029;-80
2021/06/07 08:35:12;;;;;;;15.13;11.50;;;;;;;16.08;95.76;101033.28;5073272;28;20095;-80
2021/06/07 08:37:38;;;;;;;15.75;11.70;;;;;;;16.19;95.63;101026.72;5053983;28;20405;-79
2021/06/07 08:40:07;;;;;;;16.38;12.27;;;;;;;16.21;95.62;101027.34;5073602;28;20037;-79
2021/06/07 08:42:34;;;;;;;14.57;11.45;;;;;;;16.26;95.66;101027.69;5068349;28;20028;-79
2021/06/07 08:45:00;;;;;;;16.38;12.40;;;;;;;16.29;95.74;101032.66;5054494;28;20036;-79
2021/06/07 08:47:26;;;;;;;14.52;10.85;;;;;;;16.32;96.23;101019.75;5073289;28;20039;-80
2021/06/07 08:49:51;;;;;;;13.10;10.77;;;;;;;16.36;96.43;101028.25;5072278;28;20029;-80
2021/06/07 08:52:18;;;;;;;14.82;11.52;;;;;;;16.47;96.16;101029.69;5072224;28;20435;-79
2021/06/07 08:54:46;;;;;;;15.25;12.18;;;;;;;16.49;95.88;101033.00;5072169;28;20029;-78
2021/06/07 08:57:11;;;;;;;13.63;11.05;;;;;;;16.49;95.79;101028.50;5072337;28;20036;-79
2021/06/07 08:59:37;;;;;;;15.55;11.57;;;;;;;16.59;95.96;101033.63;5054315;28;20087;-79
2021/06/07 09:02:04;;;;;;;14.82;11.43;;;;;;;16.61;95.39;101025.41;5071662;28;20580;-79
2021/06/07 09:04:29;;;;;;;12.02;9.85;;;;;;;16.74;95.48;101029.13;5052105;28;20040;-78
2021/06/07 09:06:55;;;;;;;14.18;10.23;;;;;;;16.75;94.33;101033.47;5048993;28;20053;-79
2021/06/07 09:09:23;;;;;;;13.73;10.18;;;;;;;16.77;94.35;101035.97;5054395;28;20039;-80
2021/06/07 09:11:56;;;;;;;13.05;10.10;;;;;;;16.79;94.23;101023.28;5072161;28;20153;-79
2021/06/07 09:14:26;;;;;;;14.57;10.55;;;;;;;16.83;94.30;101023.75;5071400;28;20040;-79
2021/06/07 09:16:52;;;;;;;11.47;9.20;;;;;;;16.89;95.26;101017.69;5067703;28;20450;-79
2021/06/07 09:19:29;;;;;;;12.65;10.15;;;;;;;16.99;94.93;101020.94;5053547;28;20058;-79
2021/06/07 09:22:16;;;;;;;13.23;10.13;;;;;;;17.06;94.04;101024.53;5067701;28;20024;-79
2021/06/07 09:25:04;;;;;;;11.48;9.20;;;;;;;17.07;94.47;101020.03;5070366;28;20051;-79
2021/06/07 09:27:30;;;;;;;12.90;9.40;;;;;;;17.10;93.96;101025.00;5071806;28;20397;-79
2021/06/07 09:29:55;;;;;;;13.32;10.00;;;;;;;17.10;93.85;101025.00;5071826;28;20029;-79
2021/06/07 09:32:21;;;;;;;11.65;10.07;;;;;;;17.13;93.85;101033.47;5071197;28;20036;-79
2021/06/07 09:35:04;;;;;;;14.82;10.63;;;;;;;17.23;93.30;101030.53;5054474;28;20393;-79
2021/06/07 09:37:30;;;;;;;14.93;11.25;;;;;;;17.17;92.71;101034.78;5072477;28;20036;-79
2021/06/07 09:40:19;;;;;;;12.38;10.10;;;;;;;17.08;93.61;101037.72;5071449;28;20028;-80
2021/06/07 09:42:58;;;;;;;14.93;10.90;;;;;;;17.07;93.82;101042.25;5071532;28;20517;-79
2021/06/07 09:45:46;;;;;;;12.15;10.55;;;;;;;17.14;93.77;101035.16;5072047;28;20040;-79
2021/06/07 09:48:14;;;;;;;12.68;10.00;;;;;;;17.26;93.22;101038.22;5071861;28;20036;-79
2021/06/07 09:50:55;;;;;;;11.68;9.65;;;;;;;17.28;94.31;101033.50;5070662;28;20036;-79
2021/06/07 09:53:51;;;;;;;14.93;10.73;;;;;;;17.43;93.41;101036.19;5071587;28;20040;-79
2021/06/07 09:56:17;;;;;;;13.43;10.25;;;;;;;17.55;93.17;101042.72;5071748;28;20086;-79
2021/06/07 09:58:44;;;;;;;10.23;8.57;;;;;;;17.70;93.17;101037.34;5053240;28;20028;-79
2021/06/07 10:01:21;;;;;;;12.65;9.82;;;;;;;17.66;92.83;101038.75;5053647;28;20488;-79
2021/06/07 10:03:56;;;;;;;11.70;8.70;;;;;;;17.69;93.70;101033.03;5071973;28;20060;-79
2021/06/07 10:06:30;;;;;;;12.80;10.10;;;;;;;17.63;93.30;101028.41;5071079;28;20032;-78
2021/06/07 10:09:00;;;;;;;13.55;10.02;;;;;;;17.76;92.56;101033.94;5072220;28;20036;-79
2021/06/07 10:11:32;;;;;;;12.85;9.63;;;;;;;17.82;92.50;101037.75;5052201;28;20040;-76
2021/06/07 10:14:08;;;;;;;11.10;9.30;;;;;;;17.75;91.13;101024.25;5069055;28;20131;-76
2021/06/07 10:16:34;;;;;;;8.85;7.35;;;;;;;17.78;91.19;101034.59;5060413;28;20493;-76
2021/06/07 10:19:04;;;;;;;7.55;6.43;;;;;;;17.84;92.75;101035.72;5069491;28;20078;-77
2021/06/07 10:26:11;;;;;;;11.60;9.02;;;;;;;17.62;93.21;101035.63;5087522;27;20462;-77
2021/06/07 10:28:41;;;;;;;11.38;8.90;;;;;;;17.74;91.74;101030.63;5066128;28;20532;-77
2021/06/07 10:31:13;;;;;;;13.80;9.80;;;;;;;17.84;90.58;101033.03;5069035;28;20730;-76
2021/06/07 10:33:41;;;;;;;10.35;8.20;;;;;;;18.02;90.98;101030.81;5064685;28;20529;-76
2021/06/07 10:36:21;;;;;;;13.48;10.35;;;;;;;18.10;90.72;101034.38;5079743;28;20366;-76
2021/06/07 10:38:51;;;;;;;12.27;9.87;;;;;;;18.06;90.59;101031.25;5088409;28;20038;-76
2021/06/07 10:41:19;;;;;;;12.77;10.18;;;;;;;18.13;90.05;101039.34;5088881;28;20043;-76
2021/06/07 10:43:56;;;;;;;11.60;8.85;;;;;;;18.14;90.23;101033.81;5089237;28;20388;-77
2021/06/07 10:46:30;;;;;;;12.77;9.73;;;;;;;18.21;89.73;101039.22;5098579;28;20043;-77
2021/06/07 10:48:58;;;;;;;11.25;8.73;;;;;;;18.24;91.23;101039.69;5088293;28;20040;-75
2021/06/07 10:51:29;;;;;;;11.30;8.48;;;;;;;18.26;89.50;101034.16;5097886;28;20118;-77
2021/06/07 10:54:30;;;;;;;12.40;9.40;;;;;;;18.30;89.39;101038.09;5101485;28;20029;-76
2021/06/07 10:57:15;;;;;;;11.35;9.30;;;;;;;18.34;90.01;101043.91;5081023;28;20400;-76
2021/06/07 10:59:48;;;;;;;13.52;11.05;;;;;;;18.20;88.27;101041.06;5100397;28;20077;-77
2021/06/07 11:02:19;;;;;;;13.20;10.55;;;;;;;18.26;88.85;101042.19;5094763;28;20792;-76
2021/06/07 11:04:44;;;;;;;14.07;10.85;;;;;;;18.22;87.59;101038.22;5082689;28;20456;-75
2021/06/07 11:07:18;;;;;;;15.10;11.45;;;;;;;18.07;88.07;101042.75;5092788;28;20071;-76
2021/06/07 11:10:20;;;;;;;14.38;11.75;;;;;;;18.00;88.55;101040.03;5100334;28;20391;-76
2021/06/07 11:12:48;;;;;;;15.32;11.38;;;;;;;18.01;88.06;101039.81;5098659;28;20040;-76
2021/06/07 11:15:23;;;;;;;13.13;10.82;;;;;;;18.07;88.08;101037.41;5096506;28;20088;-76